Vanlue, Ohio
Current Conditions -  °F | °C
As of 11:53 PM on Monday 22 Dec 2014 (Local Time) from KFDY Reporting Station
Overcast Overcast  
Wind Chill: 36°   Ceiling: 7000
Heat Index: 42°   Visibility: 10mi
Dew Point: 34°   Wind: 10mph
Humidity: 73%   Direction: 120°ESE
Pressure: 29.77"   Gusts: NA
Location:  40.98°N, 83.48°W
Report Text: KFDY 230453Z AUTO 12009KT 10SM OVC070 06/01 A2977 RMK AO2 SLP081 T00560011 400561044
Loading
Personal Weather Stations






























Interactive Weather Map New forecast layout! Learn more

10-Day Weather Forecast

Advertisements
Track Severe Weather on mobile